Time;durP1;ratioP1;P1;durP2;ratioP2;P2;SDS_P1;SDS_P2;PMS_P1;PMS_P2;Temp;Humidity;BMP_temperature;BMP_pressure;BME280_temperature;BME280_humidity;BME280_pressure;Samples;Min_cycle;Max_cycle;Signal;HPM_P1;HPM_P2
2022/01/10 00:01:47;;;;;;;8.50;5.57;;;;;;;;;;4955953;29;20082;-65
2022/01/10 00:04:14;;;;;;;11.10;6.22;;;;;;;;;;4955273;28;20422;-63
2022/01/10 00:06:40;;;;;;;13.45;5.10;;;;;;;;;;4955887;29;20106;-64
2022/01/10 00:09:07;;;;;;;12.77;5.50;;;;;;;;;;4955311;28;20048;-65
2022/01/10 00:11:33;;;;;;;8.55;5.55;;;;;;;;;;4955305;29;20051;-64
2022/01/10 00:14:00;;;;;;;11.05;5.72;;;;;;;;;;4955623;28;20058;-63
2022/01/10 00:16:27;;;;;;;10.60;5.78;;;;;;;;;;4955373;28;20047;-63
2022/01/10 00:18:53;;;;;;;11.23;5.63;;;;;;;;;;4955248;29;20090;-64
2022/01/10 00:21:20;;;;;;;13.20;5.65;;;;;;;;;;4955627;29;20087;-63
2022/01/10 00:23:47;;;;;;;9.57;5.55;;;;;;;;;;4954593;28;20471;-63
2022/01/10 00:26:13;;;;;;;8.05;5.95;;;;;;;;;;4955317;28;20058;-63
2022/01/10 00:28:41;;;;;;;11.23;5.97;;;;;;;;;;4955314;29;20047;-63
2022/01/10 00:31:07;;;;;;;13.77;6.22;;;;;;;;;;4955122;28;20078;-65
2022/01/10 00:33:35;;;;;;;13.35;6.55;;;;;;;;;;4954901;28;20063;-63
2022/01/10 00:36:02;;;;;;;7.70;5.35;;;;;;;;;;4955009;28;20110;-65
2022/01/10 00:38:28;;;;;;;10.15;6.20;;;;;;;;;;4955065;28;20419;-63
2022/01/10 00:40:55;;;;;;;9.77;6.22;;;;;;;;;;4955103;28;20059;-63
2022/01/10 00:43:31;;;;;;;10.70;6.00;;;;;;;;;;4954745;29;20059;-64
2022/01/10 00:45:58;;;;;;;9.90;6.25;;;;;;;;;;4953829;29;20478;-65
2022/01/10 00:48:25;;;;;;;12.68;6.93;;;;;;;;;;4954707;28;20126;-63
2022/01/10 00:50:52;;;;;;;9.20;5.80;;;;;;;;;;4954844;28;20121;-65
2022/01/10 00:53:18;;;;;;;11.15;7.07;;;;;;;;;;4954598;29;20130;-63
2022/01/10 00:55:45;;;;;;;13.57;7.47;;;;;;;;;;4954766;28;20091;-63
2022/01/10 00:58:12;;;;;;;13.68;9.07;;;;;;;;;;4954709;29;20047;-63
2022/01/10 01:00:38;;;;;;;13.55;8.10;;;;;;;;;;4954528;28;20051;-64
2022/01/10 01:03:05;;;;;;;13.52;7.40;;;;;;;;;;4954458;29;20055;-64
2022/01/10 01:05:37;;;;;;;11.68;7.53;;;;;;;;;;4954410;28;20483;-63
2022/01/10 01:08:07;;;;;;;14.30;8.37;;;;;;;;;;4954497;28;20106;-63
2022/01/10 01:13:28;;;;;;;14.90;7.57;;;;;;;;;;4954306;28;20051;-65
2022/01/10 01:16:29;;;;;;;12.85;7.93;;;;;;;;;;4954199;28;20547;-64
2022/01/10 01:24:07;;;;;;;13.70;8.00;;;;;;;;;;4954070;28;20059;-64
2022/01/10 01:26:45;;;;;;;10.45;6.85;;;;;;;;;;4953953;28;20059;-65
2022/01/10 01:29:19;;;;;;;13.25;7.70;;;;;;;;;;4954061;28;20055;-64
2022/01/10 01:31:46;;;;;;;11.75;7.53;;;;;;;;;;4954181;28;20106;-64
2022/01/10 01:34:14;;;;;;;11.30;7.68;;;;;;;;;;4952186;28;20134;-64
2022/01/10 01:36:42;;;;;;;12.85;7.55;;;;;;;;;;4953821;28;20110;-64
2022/01/10 01:39:25;;;;;;;12.77;7.65;;;;;;;;;;4953884;28;20544;-65
2022/01/10 01:42:06;;;;;;;11.43;7.55;;;;;;;;;;4954013;28;20522;-66
2022/01/10 01:44:33;;;;;;;13.70;7.65;;;;;;;;;;4953578;28;20047;-64
2022/01/10 01:47:00;;;;;;;13.65;7.93;;;;;;;;;;4953710;29;20059;-65
2022/01/10 01:49:26;;;;;;;15.15;8.38;;;;;;;;;;4954000;28;20055;-65
2022/01/10 01:51:53;;;;;;;17.52;8.45;;;;;;;;;;4954021;28;20098;-64
2022/01/10 01:54:20;;;;;;;12.38;8.05;;;;;;;;;;4953619;28;20466;-66
2022/01/10 01:56:47;;;;;;;13.82;8.23;;;;;;;;;;4953683;28;20059;-65
2022/01/10 01:59:14;;;;;;;12.93;8.23;;;;;;;;;;4953556;28;20459;-64
2022/01/10 02:01:41;;;;;;;17.45;8.38;;;;;;;;;;4953663;28;20059;-64
2022/01/10 02:04:07;;;;;;;13.73;7.75;;;;;;;;;;4953392;29;20579;-64
2022/01/10 02:06:34;;;;;;;13.52;7.68;;;;;;;;;;4953649;29;20114;-65
2022/01/10 02:09:02;;;;;;;10.10;7.13;;;;;;;;;;4953792;29;20050;-65
2022/01/10 02:11:29;;;;;;;11.73;6.97;;;;;;;;;;4953598;28;20051;-64
2022/01/10 02:13:55;;;;;;;13.38;7.50;;;;;;;;;;4953584;29;20047;-65
2022/01/10 02:16:32;;;;;;;16.50;7.80;;;;;;;;;;4953348;29;20740;-64
2022/01/10 02:18:59;;;;;;;14.63;8.00;;;;;;;;;;4953780;28;20059;-64
2022/01/10 02:21:26;;;;;;;11.43;7.55;;;;;;;;;;4953564;28;20055;-65
2022/01/10 02:23:53;;;;;;;12.88;7.72;;;;;;;;;;4953385;29;20110;-66
2022/01/10 02:26:20;;;;;;;10.98;7.40;;;;;;;;;;4952230;29;20110;-65
2022/01/10 02:28:46;;;;;;;11.27;7.38;;;;;;;;;;4953486;28;20396;-65
2022/01/10 02:31:14;;;;;;;9.48;7.05;;;;;;;;;;4953302;28;20052;-65
2022/01/10 02:33:40;;;;;;;12.70;7.68;;;;;;;;;;4953306;28;20051;-64
2022/01/10 02:36:27;;;;;;;12.82;7.63;;;;;;;;;;4953376;29;20051;-65
2022/01/10 02:39:06;;;;;;;11.70;7.03;;;;;;;;;;4953451;28;20114;-64
2022/01/10 02:41:34;;;;;;;12.65;7.47;;;;;;;;;;4953476;28;20055;-64
2022/01/10 02:44:04;;;;;;;11.15;7.22;;;;;;;;;;4953194;28;20098;-65
2022/01/10 02:46:32;;;;;;;14.68;7.75;;;;;;;;;;4954596;28;20055;-64
2022/01/10 02:48:59;;;;;;;13.35;7.30;;;;;;;;;;4957001;28;20103;-65
2022/01/10 02:51:26;;;;;;;12.52;7.72;;;;;;;;;;4956954;28;20463;-64
2022/01/10 02:53:52;;;;;;;14.20;6.85;;;;;;;;;;4956891;29;20055;-64
2022/01/10 02:56:19;;;;;;;17.63;7.60;;;;;;;;;;4957751;29;20057;-67
2022/01/10 02:58:45;;;;;;;14.23;6.85;;;;;;;;;;4957002;29;20103;-65
2022/01/10 03:01:13;;;;;;;12.40;7.60;;;;;;;;;;4956690;29;20110;-66
2022/01/10 03:03:41;;;;;;;12.82;6.82;;;;;;;;;;4956600;28;20055;-67
2022/01/10 03:06:07;;;;;;;10.57;7.13;;;;;;;;;;4956499;29;20503;-67
2022/01/10 03:08:34;;;;;;;11.05;7.25;;;;;;;;;;4955627;29;20051;-66
2022/01/10 03:11:00;;;;;;;14.40;7.90;;;;;;;;;;4956929;29;20051;-66
2022/01/10 03:13:27;;;;;;;11.18;7.32;;;;;;;;;;4956447;29;20051;-66
2022/01/10 03:15:54;;;;;;;15.18;7.15;;;;;;;;;;4956590;28;20125;-67
2022/01/10 03:18:20;;;;;;;10.05;6.70;;;;;;;;;;4956395;29;20408;-66
2022/01/10 03:20:47;;;;;;;9.73;6.78;;;;;;;;;;4956494;28;20055;-66
2022/01/10 03:23:13;;;;;;;11.07;6.68;;;;;;;;;;4956378;28;20106;-67
2022/01/10 03:25:41;;;;;;;12.05;6.78;;;;;;;;;;4956341;29;20051;-67
2022/01/10 03:28:10;;;;;;;11.77;6.85;;;;;;;;;;4956416;29;20059;-67
2022/01/10 03:30:37;;;;;;;12.63;7.03;;;;;;;;;;4956357;28;20491;-67
2022/01/10 03:33:04;;;;;;;11.52;7.68;;;;;;;;;;4956200;28;20051;-68
2022/01/10 03:35:31;;;;;;;14.02;7.82;;;;;;;;;;4956269;28;20474;-67
2022/01/10 03:37:57;;;;;;;12.73;7.28;;;;;;;;;;4956175;29;20114;-67
2022/01/10 03:40:24;;;;;;;10.55;6.85;;;;;;;;;;4956091;28;20478;-67
2022/01/10 03:42:51;;;;;;;11.60;6.88;;;;;;;;;;4955965;28;20047;-67
2022/01/10 03:45:17;;;;;;;13.38;7.85;;;;;;;;;;4955640;29;20051;-67
2022/01/10 03:47:44;;;;;;;11.80;7.43;;;;;;;;;;4955960;28;20059;-68
2022/01/10 03:50:11;;;;;;;14.88;7.90;;;;;;;;;;4956194;28;20054;-67
2022/01/10 03:52:37;;;;;;;12.48;7.88;;;;;;;;;;4955904;28;20047;-67
2022/01/10 03:55:04;;;;;;;14.25;8.30;;;;;;;;;;4955802;29;20055;-67
2022/01/10 03:57:31;;;;;;;13.30;8.25;;;;;;;;;;4954966;28;20290;-68
2022/01/10 03:59:57;;;;;;;10.05;7.65;;;;;;;;;;4955647;29;20059;-67
2022/01/10 04:02:26;;;;;;;13.48;8.25;;;;;;;;;;4955874;29;20111;-64
2022/01/10 04:04:52;;;;;;;13.55;8.43;;;;;;;;;;4955385;28;20422;-67
2022/01/10 04:07:19;;;;;;;13.25;8.68;;;;;;;;;;4955580;28;20067;-65
2022/01/10 04:09:47;;;;;;;15.68;8.15;;;;;;;;;;4955619;29;20051;-66
2022/01/10 04:12:14;;;;;;;15.52;10.00;;;;;;;;;;4955394;28;20455;-67
2022/01/10 04:14:40;;;;;;;16.30;9.70;;;;;;;;;;4955402;28;20118;-67
2022/01/10 04:17:07;;;;;;;14.38;9.30;;;;;;;;;;4955508;28;20442;-65
2022/01/10 04:19:34;;;;;;;16.48;9.80;;;;;;;;;;4955559;29;20069;-67
2022/01/10 04:22:01;;;;;;;12.85;9.43;;;;;;;;;;4955326;29;20466;-67
2022/01/10 04:24:28;;;;;;;16.52;8.80;;;;;;;;;;4955148;28;20522;-68
2022/01/10 04:26:55;;;;;;;14.60;9.23;;;;;;;;;;4955234;29;20473;-67
2022/01/10 04:29:21;;;;;;;12.50;9.68;;;;;;;;;;4955065;28;20106;-67
2022/01/10 04:31:48;;;;;;;12.85;9.45;;;;;;;;;;4955421;28;20582;-66
2022/01/10 04:34:16;;;;;;;17.20;9.02;;;;;;;;;;4954854;29;20055;-68
2022/01/10 04:36:43;;;;;;;17.88;9.77;;;;;;;;;;4955251;28;20558;-67
2022/01/10 04:39:10;;;;;;;15.25;8.82;;;;;;;;;;4955075;28;20098;-67
2022/01/10 04:41:37;;;;;;;15.00;9.73;;;;;;;;;;4954984;28;20055;-67
2022/01/10 04:44:04;;;;;;;14.32;9.27;;;;;;;;;;4954656;28;20055;-68
2022/01/10 04:46:31;;;;;;;12.95;8.52;;;;;;;;;;4954709;28;20480;-67
2022/01/10 04:48:58;;;;;;;14.85;8.85;;;;;;;;;;4954927;28;20138;-67
2022/01/10 04:51:27;;;;;;;14.30;8.98;;;;;;;;;;4954628;28;20109;-68
2022/01/10 04:53:55;;;;;;;17.08;9.00;;;;;;;;;;4954593;28;20558;-67
2022/01/10 04:56:21;;;;;;;16.33;9.57;;;;;;;;;;4954750;28;20051;-67
2022/01/10 04:58:50;;;;;;;11.63;8.45;;;;;;;;;;4954309;28;20106;-67
2022/01/10 05:01:17;;;;;;;15.98;9.27;;;;;;;;;;4954645;28;20356;-67
2022/01/10 05:03:44;;;;;;;12.63;8.85;;;;;;;;;;4954453;28;20054;-67
2022/01/10 05:06:10;;;;;;;15.70;9.60;;;;;;;;;;4954534;28;20118;-67
2022/01/10 05:08:37;;;;;;;16.02;8.77;;;;;;;;;;4954412;28;20051;-66
2022/01/10 05:11:03;;;;;;;16.15;9.07;;;;;;;;;;4954409;29;20051;-67
2022/01/10 05:13:30;;;;;;;16.08;9.20;;;;;;;;;;4954202;29;20122;-68
2022/01/10 05:15:57;;;;;;;16.80;9.23;;;;;;;;;;4954092;29;20055;-67
2022/01/10 05:18:24;;;;;;;16.13;9.85;;;;;;;;;;4954141;29;20092;-67
2022/01/10 05:20:51;;;;;;;15.55;9.05;;;;;;;;;;4954132;28;20094;-68
2022/01/10 05:23:18;;;;;;;15.13;8.23;;;;;;;;;;4954062;28;20106;-67
2022/01/10 05:25:46;;;;;;;11.20;8.70;;;;;;;;;;4954154;28;20066;-66
2022/01/10 05:28:14;;;;;;;14.25;9.02;;;;;;;;;;4954049;28;20058;-67
2022/01/10 05:30:40;;;;;;;19.30;9.68;;;;;;;;;;4954101;28;20122;-67
2022/01/10 05:33:08;;;;;;;15.00;8.70;;;;;;;;;;4952683;29;20047;-68
2022/01/10 05:35:36;;;;;;;14.50;9.20;;;;;;;;;;4954159;28;20082;-67
2022/01/10 05:38:03;;;;;;;14.10;9.05;;;;;;;;;;4954404;28;20098;-67
2022/01/10 05:40:29;;;;;;;14.32;9.65;;;;;;;;;;4953769;28;20086;-68
2022/01/10 05:42:56;;;;;;;16.25;8.73;;;;;;;;;;4953748;29;20102;-67
2022/01/10 05:45:23;;;;;;;18.48;9.43;;;;;;;;;;4953651;28;20055;-67
2022/01/10 05:47:49;;;;;;;17.60;9.60;;;;;;;;;;4953980;28;20055;-67
2022/01/10 05:50:19;;;;;;;13.23;9.73;;;;;;;;;;4953889;29;20192;-67
2022/01/10 05:52:46;;;;;;;18.42;9.02;;;;;;;;;;4953778;28;20090;-67
2022/01/10 05:55:13;;;;;;;13.95;8.85;;;;;;;;;;4953753;28;20051;-68
2022/01/10 05:57:40;;;;;;;15.82;9.45;;;;;;;;;;4953141;28;20098;-67
2022/01/10 06:00:07;;;;;;;15.60;10.52;;;;;;;;;;4953438;29;20082;-66
2022/01/10 06:02:33;;;;;;;16.60;10.00;;;;;;;;;;4953655;29;20492;-68
2022/01/10 06:05:07;;;;;;;13.65;9.80;;;;;;;;;;4953634;29;20055;-66
2022/01/10 06:07:33;;;;;;;14.85;9.85;;;;;;;;;;4953845;28;20106;-67
2022/01/10 06:10:00;;;;;;;16.73;10.45;;;;;;;;;;4953480;28;20180;-68
2022/01/10 06:12:27;;;;;;;12.38;9.38;;;;;;;;;;4953497;28;20055;-66
2022/01/10 06:14:53;;;;;;;14.70;9.20;;;;;;;;;;4953587;29;20455;-67
2022/01/10 06:17:20;;;;;;;16.38;9.65;;;;;;;;;;4953719;29;20051;-67
2022/01/10 06:19:47;;;;;;;13.52;9.60;;;;;;;;;;4953377;29;20051;-67
2022/01/10 06:22:13;;;;;;;15.77;9.10;;;;;;;;;;4954612;28;20106;-66
2022/01/10 06:24:40;;;;;;;17.08;9.07;;;;;;;;;;4957123;29;20051;-67
2022/01/10 06:27:07;;;;;;;14.98;9.70;;;;;;;;;;4957369;28;20121;-66
2022/01/10 06:29:34;;;;;;;12.45;9.65;;;;;;;;;;4957489;28;20118;-67
2022/01/10 06:32:01;;;;;;;15.95;10.55;;;;;;;;;;4957502;28;20047;-67
2022/01/10 06:34:28;;;;;;;17.38;10.25;;;;;;;;;;4957390;28;20106;-66
2022/01/10 06:36:54;;;;;;;22.88;11.55;;;;;;;;;;4957252;28;20044;-67
2022/01/10 06:39:21;;;;;;;21.08;10.65;;;;;;;;;;4957185;28;20455;-68
2022/01/10 06:41:47;;;;;;;15.23;10.40;;;;;;;;;;4955976;29;20051;-66
2022/01/10 06:44:14;;;;;;;17.75;10.95;;;;;;;;;;4956832;29;20106;-67
2022/01/10 06:46:40;;;;;;;16.73;10.35;;;;;;;;;;4957267;29;20094;-67
2022/01/10 06:49:07;;;;;;;17.48;11.02;;;;;;;;;;4957114;28;20531;-67
2022/01/10 06:51:34;;;;;;;16.92;10.80;;;;;;;;;;4957201;29;20106;-66
2022/01/10 06:54:00;;;;;;;13.55;10.20;;;;;;;;;;4956692;29;20051;-67
2022/01/10 06:56:27;;;;;;;19.13;11.63;;;;;;;;;;4957061;29;20051;-67
2022/01/10 06:58:53;;;;;;;15.15;10.35;;;;;;;;;;4956957;29;20055;-67
2022/01/10 07:01:20;;;;;;;18.42;11.30;;;;;;;;;;4956990;29;20051;-66
2022/01/10 07:03:47;;;;;;;17.80;11.68;;;;;;;;;;4964886;28;20050;-66
2022/01/10 07:06:14;;;;;;;20.67;11.85;;;;;;;;;;4960742;28;20177;-66
2022/01/10 07:08:40;;;;;;;19.65;11.63;;;;;;;;;;4956713;29;20055;-67
2022/01/10 07:11:07;;;;;;;14.90;10.70;;;;;;;;;;4956908;29;20047;-66
2022/01/10 07:13:34;;;;;;;17.20;11.13;;;;;;;;;;4957941;28;20121;-67
2022/01/10 07:16:00;;;;;;;19.20;10.85;;;;;;;;;;4954192;28;20047;-65
2022/01/10 07:18:27;;;;;;;16.58;11.02;;;;;;;;;;4954409;29;20059;-67
2022/01/10 07:20:53;;;;;;;15.82;11.45;;;;;;;;;;4954841;29;20059;-66
2022/01/10 07:23:20;;;;;;;19.75;13.32;;;;;;;;;;4965291;28;20685;-67
2022/01/10 07:25:47;;;;;;;23.13;14.10;;;;;;;;;;4973673;28;20050;-66
2022/01/10 07:28:13;;;;;;;19.75;12.10;;;;;;;;;;4973165;28;20090;-68
2022/01/10 07:30:40;;;;;;;24.85;12.95;;;;;;;;;;4973706;28;20469;-67
2022/01/10 07:33:06;;;;;;;19.08;13.55;;;;;;;;;;4972361;28;20077;-67
2022/01/10 07:35:33;;;;;;;19.05;12.48;;;;;;;;;;4973580;28;20113;-66
2022/01/10 07:38:00;;;;;;;18.30;12.30;;;;;;;;;;4973805;28;20058;-68
2022/01/10 07:40:26;;;;;;;21.50;12.77;;;;;;;;;;4973567;28;20054;-67
2022/01/10 07:42:53;;;;;;;19.65;13.30;;;;;;;;;;4972551;28;20506;-67
2022/01/10 07:45:20;;;;;;;21.00;12.30;;;;;;;;;;4973346;28;20498;-67
2022/01/10 07:47:47;;;;;;;21.63;12.68;;;;;;;;;;4973263;28;20541;-67
2022/01/10 07:50:13;;;;;;;21.85;13.45;;;;;;;;;;4973595;28;20050;-66
2022/01/10 07:52:40;;;;;;;25.83;14.30;;;;;;;;;;4973074;28;20498;-66
2022/01/10 07:55:07;;;;;;;28.10;14.07;;;;;;;;;;4972467;28;20055;-66
2022/01/10 07:57:33;;;;;;;18.95;14.00;;;;;;;;;;4973156;28;20047;-66
2022/01/10 08:00:01;;;;;;;24.77;13.60;;;;;;;;;;4973029;28;20101;-66
2022/01/10 08:02:27;;;;;;;23.30;12.70;;;;;;;;;;4967348;28;20506;-66
2022/01/10 08:04:54;;;;;;;20.88;12.05;;;;;;;;;;4953369;29;20078;-66
2022/01/10 08:07:21;;;;;;;24.25;13.05;;;;;;;;;;4955525;28;20495;-67
2022/01/10 08:09:47;;;;;;;19.67;14.00;;;;;;;;;;4955788;28;20051;-67
2022/01/10 08:12:14;;;;;;;23.25;14.00;;;;;;;;;;4955454;29;20047;-66
2022/01/10 08:14:41;;;;;;;23.08;14.40;;;;;;;;;;4950330;29;20047;-68
2022/01/10 08:17:08;;;;;;;23.45;14.75;;;;;;;;;;4955066;28;20454;-68
2022/01/10 08:19:34;;;;;;;22.30;13.95;;;;;;;;;;4952979;28;20047;-67
2022/01/10 08:22:01;;;;;;;30.15;15.13;;;;;;;;;;4954909;28;20055;-68
2022/01/10 08:24:28;;;;;;;23.27;16.02;;;;;;;;;;4953447;28;20059;-66
2022/01/10 08:26:56;;;;;;;21.52;14.18;;;;;;;;;;4951731;29;20556;-67
2022/01/10 08:29:23;;;;;;;22.83;13.88;;;;;;;;;;4954923;28;20089;-66
2022/01/10 08:31:50;;;;;;;29.98;14.05;;;;;;;;;;4954737;28;20051;-68
2022/01/10 08:34:17;;;;;;;25.73;15.07;;;;;;;;;;4954677;28;20529;-66
2022/01/10 08:36:43;;;;;;;22.40;14.23;;;;;;;;;;4953730;28;20565;-68
2022/01/10 08:39:10;;;;;;;25.70;14.82;;;;;;;;;;4953303;29;20094;-68
2022/01/10 08:41:37;;;;;;;27.33;14.15;;;;;;;;;;4953741;28;20094;-68
2022/01/10 08:44:05;;;;;;;25.13;13.73;;;;;;;;;;4952907;28;20471;-68
2022/01/10 08:46:32;;;;;;;26.15;14.38;;;;;;;;;;4950225;29;20134;-66
2022/01/10 08:48:59;;;;;;;25.23;14.40;;;;;;;;;;4950617;28;20059;-67
2022/01/10 08:51:27;;;;;;;27.67;14.93;;;;;;;;;;4952124;28;20491;-65
2022/01/10 08:53:54;;;;;;;37.75;18.73;;;;;;;;;;4951333;29;20051;-66
2022/01/10 08:56:21;;;;;;;26.73;15.38;;;;;;;;;;4950926;28;20048;-68
2022/01/10 08:58:47;;;;;;;25.13;14.05;;;;;;;;;;4950324;29;20043;-68
2022/01/10 09:01:14;;;;;;;23.23;12.95;;;;;;;;;;4950272;29;20054;-65
2022/01/10 09:03:40;;;;;;;20.65;13.32;;;;;;;;;;4950982;29;20047;-66
2022/01/10 09:06:07;;;;;;;21.98;13.25;;;;;;;;;;4950666;29;20055;-67
2022/01/10 09:08:37;;;;;;;25.88;14.63;;;;;;;;;;4941467;28;20135;-66
2022/01/10 09:11:05;;;;;;;24.35;13.40;;;;;;;;;;4953467;28;20494;-66
2022/01/10 09:13:32;;;;;;;20.85;13.23;;;;;;;;;;4948797;29;20534;-66
2022/01/10 09:16:01;;;;;;;19.85;13.18;;;;;;;;;;4951171;29;20051;-67
2022/01/10 09:18:28;;;;;;;20.88;12.35;;;;;;;;;;4947515;29;20502;-67
2022/01/10 09:20:55;;;;;;;24.65;13.20;;;;;;;;;;4950114;28;20388;-66
2022/01/10 09:23:23;;;;;;;16.02;10.95;;;;;;;;;;4950295;29;20105;-63
2022/01/10 09:25:49;;;;;;;19.52;11.93;;;;;;;;;;4950808;28;20118;-68
2022/01/10 09:28:17;;;;;;;18.13;11.80;;;;;;;;;;4949896;28;20047;-65
2022/01/10 09:30:44;;;;;;;21.85;11.68;;;;;;;;;;4948850;29;20542;-66
2022/01/10 09:33:10;;;;;;;17.83;11.68;;;;;;;;;;4950337;28;20134;-66
2022/01/10 09:35:37;;;;;;;22.00;12.75;;;;;;;;;;4950557;28;20106;-66
2022/01/10 09:38:04;;;;;;;19.23;11.23;;;;;;;;;;4950431;28;20055;-66
2022/01/10 09:40:30;;;;;;;20.85;12.38;;;;;;;;;;4951429;28;20407;-66
2022/01/10 09:42:58;;;;;;;17.83;12.32;;;;;;;;;;4950717;28;20370;-69
2022/01/10 09:45:24;;;;;;;16.50;11.05;;;;;;;;;;4950348;28;20063;-69
2022/01/10 09:47:51;;;;;;;13.48;10.23;;;;;;;;;;4950103;28;20047;-68
2022/01/10 09:50:17;;;;;;;22.63;10.68;;;;;;;;;;4949100;29;20519;-68
2022/01/10 09:52:47;;;;;;;20.67;10.77;;;;;;;;;;4950163;28;20524;-68
2022/01/10 09:55:14;;;;;;;17.13;10.88;;;;;;;;;;4947066;28;20055;-69
2022/01/10 09:57:41;;;;;;;18.67;10.68;;;;;;;;;;4949209;29;20047;-68
2022/01/10 10:00:09;;;;;;;16.83;9.43;;;;;;;;;;4950000;29;20495;-67
2022/01/10 10:02:36;;;;;;;15.88;9.45;;;;;;;;;;4950829;28;20054;-67
2022/01/10 10:05:08;;;;;;;14.50;9.10;;;;;;;;;;4952751;28;20054;-74
2022/01/10 10:07:40;;;;;;;13.68;8.40;;;;;;;;;;4942416;29;20043;-71
2022/01/10 10:10:11;;;;;;;14.02;8.48;;;;;;;;;;4952532;28;20051;-73
2022/01/10 10:12:43;;;;;;;12.10;7.45;;;;;;;;;;4935827;29;20110;-73
2022/01/10 10:15:12;;;;;;;15.60;7.95;;;;;;;;;;4941219;29;20565;-73
2022/01/10 10:17:39;;;;;;;15.15;8.15;;;;;;;;;;4952729;28;20106;-75
2022/01/10 10:20:15;;;;;;;15.63;7.32;;;;;;;;;;4953634;28;20051;-77
2022/01/10 10:23:04;;;;;;;13.20;8.68;;;;;;;;;;4938381;28;20508;-66
2022/01/10 10:25:33;;;;;;;14.00;8.25;;;;;;;;;;4952155;28;20069;-69
2022/01/10 10:28:06;;;;;;;11.95;7.82;;;;;;;;;;4950582;29;20098;-75
2022/01/10 10:30:36;;;;;;;13.98;8.90;;;;;;;;;;4938922;28;20048;-75
2022/01/10 10:33:51;;;;;;;14.15;7.78;;;;;;;;;;4950830;28;20047;-74
2022/01/10 10:36:21;;;;;;;15.10;8.25;;;;;;;;;;4941006;29;20047;-74
2022/01/10 10:38:47;;;;;;;12.05;8.35;;;;;;;;;;4951961;29;20566;-71
2022/01/10 10:41:14;;;;;;;16.85;8.93;;;;;;;;;;4955469;28;20074;-71
2022/01/10 10:43:41;;;;;;;17.52;9.18;;;;;;;;;;4950545;28;20066;-68
2022/01/10 10:46:13;;;;;;;15.57;8.00;;;;;;;;;;4952592;28;20086;-72
2022/01/10 10:48:41;;;;;;;14.38;7.82;;;;;;;;;;4951663;28;20628;-69
2022/01/10 10:51:08;;;;;;;12.57;8.50;;;;;;;;;;4951551;28;20055;-74
2022/01/10 10:53:34;;;;;;;13.40;8.35;;;;;;;;;;4951694;28;20091;-70
2022/01/10 10:56:03;;;;;;;13.00;8.30;;;;;;;;;;4952560;28;20051;-73
2022/01/10 10:58:35;;;;;;;15.18;8.30;;;;;;;;;;4935466;29;20067;-74
2022/01/10 11:01:03;;;;;;;10.60;7.68;;;;;;;;;;4945203;28;20051;-72
2022/01/10 11:03:30;;;;;;;15.90;8.82;;;;;;;;;;4950379;29;20054;-71
2022/01/10 11:05:59;;;;;;;14.82;8.82;;;;;;;;;;4951386;28;20051;-70
2022/01/10 11:08:27;;;;;;;17.45;8.70;;;;;;;;;;4952268;28;20487;-68
2022/01/10 11:10:55;;;;;;;12.25;7.30;;;;;;;;;;4955843;28;20059;-72
2022/01/10 11:13:23;;;;;;;11.68;7.50;;;;;;;;;;4937976;29;20055;-71
2022/01/10 11:15:51;;;;;;;15.27;7.97;;;;;;;;;;4938324;29;20053;-72
2022/01/10 11:18:19;;;;;;;13.73;7.93;;;;;;;;;;4938143;29;20050;-71
2022/01/10 11:20:51;;;;;;;20.90;8.30;;;;;;;;;;4946066;28;20047;-72
2022/01/10 11:23:43;;;;;;;13.80;7.82;;;;;;;;;;4953251;29;20055;-71
2022/01/10 11:26:12;;;;;;;12.73;7.15;;;;;;;;;;4951914;29;20055;-71
2022/01/10 11:28:52;;;;;;;17.17;8.43;;;;;;;;;;4954254;29;20483;-71
2022/01/10 11:31:24;;;;;;;17.00;7.30;;;;;;;;;;4955345;28;20065;-71
2022/01/10 11:33:56;;;;;;;14.75;8.02;;;;;;;;;;4952937;28;20110;-69
2022/01/10 11:36:25;;;;;;;17.02;7.63;;;;;;;;;;4947389;28;20078;-70
2022/01/10 11:38:54;;;;;;;21.27;7.63;;;;;;;;;;4955004;28;20043;-71
2022/01/10 11:41:26;;;;;;;11.25;7.35;;;;;;;;;;4954861;28;20478;-71
2022/01/10 11:44:08;;;;;;;14.65;7.55;;;;;;;;;;4944066;29;20043;-70
2022/01/10 11:46:48;;;;;;;15.90;7.95;;;;;;;;;;4953443;29;20134;-66
2022/01/10 11:49:15;;;;;;;11.20;6.57;;;;;;;;;;4951057;29;20148;-67
2022/01/10 11:51:43;;;;;;;14.70;6.55;;;;;;;;;;4955723;28;20433;-67
2022/01/10 11:54:16;;;;;;;10.15;5.60;;;;;;;;;;4949614;29;20043;-66
2022/01/10 11:56:45;;;;;;;10.00;6.30;;;;;;;;;;4952355;29;20106;-64
2022/01/10 11:59:14;;;;;;;17.25;7.68;;;;;;;;;;4952016;28;20091;-67
2022/01/10 12:01:45;;;;;;;14.82;7.78;;;;;;;;;;4952347;28;20102;-65
2022/01/10 12:04:15;;;;;;;15.23;7.50;;;;;;;;;;4951884;28;20051;-66
2022/01/10 12:06:42;;;;;;;13.93;7.43;;;;;;;;;;4952384;28;20499;-65
2022/01/10 12:09:09;;;;;;;12.95;8.02;;;;;;;;;;4952353;28;20046;-66
2022/01/10 12:11:38;;;;;;;15.68;8.10;;;;;;;;;;4953508;28;20103;-67
2022/01/10 12:14:07;;;;;;;13.38;7.82;;;;;;;;;;4951128;29;20522;-67
2022/01/10 12:16:34;;;;;;;16.25;9.02;;;;;;;;;;4951076;28;20059;-65
2022/01/10 12:19:03;;;;;;;18.77;9.57;;;;;;;;;;4951323;28;20510;-67
2022/01/10 12:21:30;;;;;;;17.15;10.95;;;;;;;;;;4952083;28;20047;-64
2022/01/10 12:23:57;;;;;;;17.33;10.80;;;;;;;;;;4952198;28;20051;-67
2022/01/10 12:26:24;;;;;;;22.95;12.50;;;;;;;;;;4951924;28;20055;-66
2022/01/10 12:28:53;;;;;;;23.95;12.45;;;;;;;;;;4952002;28;20094;-68
2022/01/10 12:31:21;;;;;;;19.98;12.25;;;;;;;;;;4951862;29;20090;-65
2022/01/10 12:33:51;;;;;;;21.13;13.40;;;;;;;;;;4948461;29;20836;-67
2022/01/10 12:36:19;;;;;;;21.80;10.88;;;;;;;;;;4951265;29;20102;-66
2022/01/10 12:38:51;;;;;;;21.55;10.93;;;;;;;;;;4952019;28;20051;-66
2022/01/10 12:41:19;;;;;;;14.43;9.48;;;;;;;;;;4950194;28;20706;-67
2022/01/10 12:43:49;;;;;;;24.70;10.50;;;;;;;;;;4951778;28;20106;-65
2022/01/10 12:46:17;;;;;;;22.42;12.10;;;;;;;;;;4951982;28;20731;-67
2022/01/10 12:48:46;;;;;;;19.20;11.07;;;;;;;;;;4951649;28;20086;-67
2022/01/10 12:51:14;;;;;;;19.20;11.15;;;;;;;;;;4949824;28;20061;-68
2022/01/10 12:54:00;;;;;;;18.25;10.27;;;;;;;;;;4950585;29;20838;-67
2022/01/10 12:56:26;;;;;;;17.52;10.68;;;;;;;;;;4951404;28;20573;-68
2022/01/10 12:58:53;;;;;;;19.35;10.50;;;;;;;;;;4953654;28;20474;-66
2022/01/10 13:01:21;;;;;;;17.92;10.55;;;;;;;;;;4953332;29;20051;-68
2022/01/10 13:03:52;;;;;;;18.55;10.25;;;;;;;;;;4949731;29;20442;-65
2022/01/10 13:06:19;;;;;;;16.25;9.57;;;;;;;;;;4952671;29;20136;-67
2022/01/10 13:08:47;;;;;;;21.02;10.27;;;;;;;;;;4951674;29;20047;-67
2022/01/10 13:11:16;;;;;;;44.53;13.65;;;;;;;;;;4950766;29;20052;-66
2022/01/10 13:13:48;;;;;;;25.30;11.85;;;;;;;;;;4952988;28;20499;-68
2022/01/10 13:16:30;;;;;;;16.60;10.20;;;;;;;;;;4953216;28;20655;-67
2022/01/10 13:18:58;;;;;;;26.38;11.02;;;;;;;;;;4952756;29;20054;-68
2022/01/10 13:21:41;;;;;;;19.13;11.15;;;;;;;;;;4952805;28;20102;-66
2022/01/10 13:24:17;;;;;;;18.55;9.95;;;;;;;;;;4949564;29;20051;-67
2022/01/10 13:26:58;;;;;;;14.27;8.60;;;;;;;;;;4951128;29;20051;-67
2022/01/10 13:29:48;;;;;;;17.27;8.75;;;;;;;;;;4952766;28;20110;-65
2022/01/10 13:32:27;;;;;;;16.98;9.32;;;;;;;;;;4937013;29;20055;-67
2022/01/10 13:35:02;;;;;;;19.67;8.93;;;;;;;;;;4950729;29;20043;-66
2022/01/10 13:37:56;;;;;;;13.45;8.63;;;;;;;;;;4949132;29;20770;-66
2022/01/10 13:40:30;;;;;;;16.42;8.88;;;;;;;;;;4946057;28;20423;-67
2022/01/10 13:43:01;;;;;;;19.52;9.70;;;;;;;;;;4952613;29;20047;-66
2022/01/10 13:45:46;;;;;;;18.88;9.13;;;;;;;;;;4952334;28;20129;-67
2022/01/10 13:48:31;;;;;;;14.85;8.65;;;;;;;;;;4952051;29;20043;-66
2022/01/10 13:51:18;;;;;;;16.60;8.68;;;;;;;;;;4953269;28;20133;-67
2022/01/10 13:53:47;;;;;;;19.48;8.73;;;;;;;;;;4952423;29;20055;-67
2022/01/10 13:56:22;;;;;;;15.68;8.98;;;;;;;;;;4950932;29;20526;-66
2022/01/10 13:58:50;;;;;;;18.85;8.48;;;;;;;;;;4952836;28;20047;-67
2022/01/10 14:01:18;;;;;;;16.33;8.90;;;;;;;;;;4954968;28;20051;-68
2022/01/10 14:03:46;;;;;;;18.52;9.75;;;;;;;;;;4946122;29;20046;-66
2022/01/10 14:06:21;;;;;;;20.15;9.85;;;;;;;;;;4950919;28;20059;-68
2022/01/10 14:08:50;;;;;;;17.10;9.68;;;;;;;;;;4950419;28;20047;-68
2022/01/10 14:11:18;;;;;;;17.35;9.65;;;;;;;;;;4950742;28;20058;-68
2022/01/10 14:13:48;;;;;;;18.17;8.82;;;;;;;;;;4950346;28;20400;-67
2022/01/10 14:16:19;;;;;;;15.40;9.25;;;;;;;;;;4950498;29;20672;-68
2022/01/10 14:18:47;;;;;;;13.00;7.93;;;;;;;;;;4950755;28;20134;-68
2022/01/10 14:21:15;;;;;;;13.32;8.32;;;;;;;;;;4950233;28;20384;-68
2022/01/10 14:23:42;;;;;;;16.55;8.25;;;;;;;;;;4948948;29;20114;-67
2022/01/10 14:26:12;;;;;;;14.13;8.27;;;;;;;;;;4950162;28;20106;-67
2022/01/10 14:28:40;;;;;;;13.35;8.65;;;;;;;;;;4948487;29;20126;-68
2022/01/10 14:31:07;;;;;;;18.20;9.82;;;;;;;;;;4950352;28;20093;-67
2022/01/10 14:33:34;;;;;;;16.55;9.63;;;;;;;;;;4950316;28;20051;-66
2022/01/10 14:36:01;;;;;;;16.70;10.00;;;;;;;;;;4950352;28;20483;-67
2022/01/10 14:38:28;;;;;;;15.02;8.90;;;;;;;;;;4953433;28;20057;-66
2022/01/10 14:40:56;;;;;;;15.40;8.98;;;;;;;;;;4950113;28;20055;-67
2022/01/10 14:43:22;;;;;;;16.20;8.77;;;;;;;;;;4951353;28;20114;-66